KDEN/DEN METAR and TAF weather

Enter ICAO airport designator
Station Type Date Time Source
KDEN METAR 2021/09/24 01:53 UTC NOAA

KDEN 240153Z 05007KT 10SM BKN130 BKN200 21/M04 A3014 RMK AO2 SLP138 T02111039


Station Type Date Time Source
KDEN Decoded METAR 2021/09/24 01:53 UTC NOAA

DENVER INTERNATIONAL AIRPORT, CO, United States (KDEN) 39-52N 104-40W 1640M
Sep 23, 2021 - 09:53 PM EDT / 2021.09.24 0153 UTC
Wind: from the NE (050 degrees) at 8 MPH (7 KT):0
Visibility: 10 mile(s):0
Sky conditions: mostly cloudy
Temperature: 70.0 F (21.1 C)
Dew Point: 25.0 F (-3.9 C)
Relative Humidity: 18%
Pressure (altimeter): 30.14 in. Hg (1020 hPa)
ob: KDEN 240153Z 05007KT 10SM BKN130 BKN200 21/M04 A3014 RMK AO2 SLP138 T02111039
cycle: 2

Station Type Date Time Source
KDEN TAF 2021/09/23 20:22 UTC NOAA

TAF
AMD KDEN 232020Z 2320/2424 04010KT P6SM FU SCT220
FM240300 30007KT P6SM SCT200
FM240700 23008KT P6SM SCT200
FM241500 28006KT P6SM FEW200
FM241800 03008KT P6SM FEW200

Example: see airport list